aviador You're here:

KSMX Decoded Metar

SANTA MARIA in CA, USA
Report Time2018-02-25 14:51:00
UTC Time2018-02-25 15:32:48
Flight Rules vfr VFR
Wind030° at 11 kt
W.Decomp.*RWY 02: 11.0 kt HW 0.8 kt LCW
RWY 30: 2.7 kt HW 10.7 kt RCW
W.Rank030° ranks 25
Current wind is above 030° avg. (7.4)
Visibility9999 m
Phenomena:N/A
Clouds:N/A
Expected CloudBase > 2,800 ft AGL from Temp-Dew spread
CeilingNone
Temp09°C (ISA -6)
Dew Point02°C (62% RH)
AAT3.4°C
QNH1025 hPa
Density Alt-725 ft
Elevation243 ft
Report Wrong Elevation
Raw Report
METAR KSMX 251451Z 03011KT 10SM CLR 09/02 A3026 RMK AO2 SLP250 T00890017
53008 $=

Extra information for KSMX:More info

Metar Taf Metar & Taf Last 4 Metars F.Rules Stats Wind Profile Meteogram Temp Stats Airport Information Weather charts Add Link Nearby VenuesMetar ALERT Operation Metar Decoded Social comments

AIRNAV info for KSMX